Time,TemperatureF,DewpointF,PressureIn,WindDirection,WindDirectionDegrees,WindSpeedMPH,WindSpeedGustMPH,Humidity,HourlyPrecipIn,Conditions,Clouds,dailyrainin,SoftwareType,DateUTC
2013-12-13 00:00:00,34.4,15.6,24.19,North,0,0.0,-999.0,46,0.00,,,0.08,,2013-12-13 08:00:00,
2013-12-13 01:00:00,36.4,13.7,24.17,North,0,0.0,-999.0,39,0.00,,,0.08,,2013-12-13 09:00:00,
2013-12-13 02:00:00,36.2,14.7,24.18,North,0,0.0,-999.0,41,0.00,,,0.08,,2013-12-13 10:00:00,
2013-12-13 03:00:00,34.9,13.1,24.17,North,0,0.0,-999.0,40,0.00,,,0.08,,2013-12-13 11:00:00,
2013-12-13 04:00:00,32.8,13.6,24.17,North,0,0.0,-999.0,45,0.00,,,0.08,,2013-12-13 12:00:00,
2013-12-13 05:00:00,31.5,14.0,24.17,North,0,0.0,-999.0,48,0.00,,,0.08,,2013-12-13 13:00:00,
2013-12-13 06:00:00,32.6,14.5,24.18,North,0,0.0,-999.0,47,0.00,,,0.08,,2013-12-13 14:00:00,
2013-12-13 07:05:00,30.6,15.0,24.18,North,0,0.0,-999.0,52,0.00,,,0.08,,2013-12-13 15:05:00,
2013-12-13 08:05:00,34.2,15.4,0.00,North,0,0.0,-999.0,46,0.00,,,0.08,,2013-12-13 16:05:00,
2013-12-13 09:05:00,39.6,12.1,0.00,North,0,0.0,-999.0,32,0.00,,,0.08,,2013-12-13 17:05:00,
2013-12-13 10:05:00,42.3,15.0,0.00,North,0,0.0,-999.0,33,0.00,,,0.08,,2013-12-13 18:05:00,
2013-12-13 11:05:00,45.0,13.7,0.00,North,0,0.0,-999.0,28,0.00,,,0.06,,2013-12-13 19:05:00,
2013-12-13 12:05:00,45.5,17.9,0.00,North,0,0.0,-999.0,33,0.00,,,0.02,,2013-12-13 20:05:00,
2013-12-13 13:05:00,46.4,18.1,0.00,North,0,0.0,-999.0,32,0.00,,,0.02,,2013-12-13 21:05:00,
2013-12-13 14:05:00,45.0,17.5,0.00,North,0,0.0,-999.0,33,0.00,,,0.00,,2013-12-13 22:05:00,
2013-12-13 15:05:00,43.6,19.4,0.00,North,0,0.0,-999.0,38,0.00,,,0.00,,2013-12-13 23:05:00,
2013-12-13 16:05:00,38.2,20.6,0.00,North,0,0.0,-999.0,49,0.00,,,0.00,,2013-12-14 00:05:00,
2013-12-13 17:05:00,35.1,19.6,0.00,North,0,0.0,-999.0,53,0.00,,,0.00,,2013-12-14 01:05:00,
2013-12-13 18:00:00,33.7,18.6,24.24,North,0,0.0,-999.0,54,0.00,,,0.00,,2013-12-14 02:00:00,
2013-12-13 19:00:00,33.1,18.6,24.26,North,0,0.0,-999.0,55,0.00,,,0.00,,2013-12-14 03:00:00,
2013-12-13 20:00:00,32.4,18.4,24.27,North,0,0.0,-999.0,56,0.00,,,0.00,,2013-12-14 04:00:00,
2013-12-13 21:00:00,31.7,17.3,24.29,North,0,0.0,-999.0,55,0.00,,,0.00,,2013-12-14 05:00:00,
2013-12-13 22:00:00,31.7,17.3,24.30,North,0,0.0,-999.0,55,0.00,,,0.00,,2013-12-14 06:00:00,
2013-12-13 23:00:00,31.5,17.1,24.32,North,0,0.0,-999.0,55,0.00,,,0.00,,2013-12-14 07:00:00,